This is the latest recevied weather packets stored in our database for station/object N7CEE-2. If no packets are shown the sender has not sent any weather packets the latest 10 day(s).
| Time | Temp. | Humidity | Pressure | Rain* | Wind** | Luminosity | Snow |
|---|---|---|---|---|---|---|---|
| 1777225815 | 21.11° C | 36% | 1013.6 hPa | 0 mm | - | 886 W/m² | - |
| 1777225511 | 20.56° C | 37% | 1013.6 hPa | 0 mm | - | 872 W/m² | - |
| 1777225209 | 20° C | 38% | 1013.5 hPa | 0 mm | - | 860 W/m² | - |
| 1777224905 | 20° C | 38% | 1013.6 hPa | 0 mm | - | 851 W/m² | - |
| 1777224603 | 20.56° C | 38% | 1013.8 hPa | 0 mm | - | 841 W/m² | - |
| 1777224297 | 20° C | 37% | 1013.7 hPa | 0 mm | - | 823 W/m² | - |
| 1777223993 | 20° C | 38% | 1013.6 hPa | 0 mm | - | 804 W/m² | - |
| 1777223691 | 20° C | 39% | 1013.6 hPa | 0 mm | - | 796 W/m² | - |
| 1777223386 | 20° C | 37% | 1013.6 hPa | 0 mm | - | 785 W/m² | - |
| 1777223085 | 20° C | 38% | 1013.5 hPa | 0 mm | - | 767 W/m² | - |
| 1777222781 | 20° C | 38% | 1013.6 hPa | 0 mm | - | 750 W/m² | - |
| 1777222479 | 20° C | 39% | 1013.4 hPa | 0 mm | - | 732 W/m² | - |
| 1777222176 | 20° C | 38% | 1013.5 hPa | 0 mm | - | 722 W/m² | - |
| 1777221874 | 20° C | 38% | 1013.3 hPa | 0 mm | - | 700 W/m² | - |
| 1777221573 | 19.44° C | 39% | 1013.2 hPa | 0 mm | - | 688 W/m² | - |
| 1777221271 | 20° C | 38% | 1013 hPa | 0 mm | - | 672 W/m² | - |
| 1777220968 | 19.44° C | 39% | 1012.9 hPa | 0 mm | - | 655 W/m² | - |
| 1777220663 | 18.89° C | 39% | 1013 hPa | 0 mm | - | 638 W/m² | - |
| 1777220360 | 19.44° C | 38% | 1012.9 hPa | 0 mm | - | 619 W/m² | - |
| 1777220059 | 18.89° C | 39% | 1012.9 hPa | 0 mm | - | 603 W/m² | - |
| 1777219757 | 19.44° C | 38% | 1012.8 hPa | 0 mm | - | 580 W/m² | - |
| 1777219454 | 20° C | 38% | 1012.7 hPa | 0 mm | - | 558 W/m² | - |
| 1777219149 | 19.44° C | 38% | 1012.5 hPa | 0 mm | - | 538 W/m² | - |
| 1777218846 | 19.44° C | 39% | 1012.6 hPa | 0 mm | - | 517 W/m² | - |
| 1777218542 | 19.44° C | 37% | 1012.5 hPa | 0 mm | - | 495 W/m² | - |
* Rain latest hour (hover to see other rain measurements)
** Current wind speed in m/s (hover to see current wind gust speed)